Спиченково

Карта отелей и гостиниц, располагающихся рядом с аэропортом Спиченково :

Спиченково
Новокузнецк
Кемеровская область 53° 48' 42.9912" N, 86° 52' 42.2004" E
Код аэродрома ИКАО
UNWW
Код аэродрома RU
УНВВ
Координаты
N53.81194° E086.87839°
Превышение над уровнем моря
311
Основная полоса
01/19
Курс магнитный
013,8/193,8
Длина основной ВПП
2680
Ширина основной ВПП
45
Покрытие основной ВПП
Твёрдое (бетон)
Освещение ВПП
Постоянное
Тип: 
Аэродром
Класс аэродрома: 
Международный
Принадлежность: 
ГА
Статус: 
Действующий
Сайт: 
http://www.aerokuz.ru/
E-mail аэродрома: 
reception@aerokuz.ru
Страна: 
Россия
Регион: 
Кемеровская область
Город: 
Новокузнецк
Дополнительная информация: 
Оператор: ООО «Аэрокузбасс». Обеспечивает круглосуточный прием, обслуживание и выпуск ВС : Ту-154, Ил-76, Як-42 и классом ниже. В составе аэропортового комплекса имеется аэровокзал и цех бортового питания рассчитанные на обслуживание 200 пасс/час.
Схемы аэропортов: 

Найти трансфер

С помощью этой формы Вы можете найти трансфер из аэропорта Спиченково в город, аэропорт или вокзал:

Погода в аэропортах:

Авиационная погода в Москва - Домодедово

Погода METAR: 
UUDD 221800Z 10003MPS 1400 1100S R14R/P2000U R14C/P2000D SN SCT008 M04/M06 Q1011 R14R/590335 R14C/590337 TEMPO 1200 SHSN SCT011CB
Время наблюдения
2022-01-22T18:00:00Z
Температура C
-4.0
Точка росы
-6.0
Направление ветра
100
Скорость ветра (узлы)
6
Метео видимость
0.87
Облачность
SCT
Нижняя граница облачности (футы)
800
Явления погоды
SN
Условия полета
LIFR
Аэропорт подробнее: 
SCT – разбросанная отдельная облачность;
SN – снег;

Авиационная погода в Самсуне

Регион: 
Погода METAR: 
LTFH 221750Z 29012KT 3200 -RASN SCT005 BKN026 OVC080 02/01 Q1010 NOSIG
Время наблюдения
2022-01-22T17:50:00Z
Температура C
2.0
Точка росы
1.0
Направление ветра
290
Скорость ветра (узлы)
12
Метео видимость
1.99
Облачность
SCT
BKN
OVC
Нижняя граница облачности (футы)
500
2600
8000
Явления погоды
-RA -SN
Условия полета
IFR
SCT – разбросанная отдельная облачность; BKN – значительная (рассеянная, разорванная) облачность; OVC – сплошная облачность;
-RA - слабый дождь; -SN – слабый снег;

Авиационная погода в Толмачево

Регион: 
Погода METAR: 
UNNT 221800Z 15002MPS 4300 BR NSC M22/M25 Q1034 R25/810250 R16/810250 NOSIG RMK QFE765/1021
Время наблюдения
2022-01-22T18:00:00Z
Температура C
-22.0
Точка росы
-25.0
Направление ветра
150
Скорость ветра (узлы)
4
Метео видимость
2.67
Облачность
CLR
Нижняя граница облачности (футы)
Явления погоды
BR
Условия полета
IFR
Аэропорт подробнее: 
CLR — нет облаков ниже 3000 м
BR – дымка (видимость от 1 до 9 км);

Авиационная погода в Ханты-Мансийске

Регион: 
Погода METAR: 
USHH 221800Z 16002MPS 9999 -SN BKN021 M12/M14 Q1028 R06/390037 TEMPO 3000 -SN BKN010
Время наблюдения
2022-01-22T18:00:00Z
Температура C
-12.0
Точка росы
-14.0
Направление ветра
160
Скорость ветра (узлы)
4
Метео видимость
6.21
Облачность
BKN
Нижняя граница облачности (футы)
2100
Явления погоды
-SN
Условия полета
MVFR
Аэропорт подробнее: 
BKN – значительная (рассеянная, разорванная) облачность;
-SN – слабый снег;